Time;durP1;ratioP1;P1;durP2;ratioP2;P2;SDS_P1;SDS_P2;PMS_P1;PMS_P2;Temp;Humidity;BMP_temperature;BMP_pressure;BME280_temperature;BME280_humidity;BME280_pressure;Samples;Min_cycle;Max_cycle;Signal;HPM_P1;HPM_P2
2020/12/01 00:02:24;;;;;;;101.67;34.47;;;-1.90;99.90;;;;;;5053564;28;20538;-88
2020/12/01 00:04:49;;;;;;;93.73;35.40;;;-1.20;99.90;;;;;;5053733;28;20576;-89
2020/12/01 00:07:15;;;;;;;104.60;38.63;;;-2.00;99.90;;;;;;5053883;28;20193;-89
2020/12/01 00:09:41;;;;;;;115.33;40.10;;;-1.60;99.90;;;;;;5053701;28;20182;-89
2020/12/01 00:12:07;;;;;;;113.97;39.10;;;-2.00;99.90;;;;;;5054576;28;20640;-90
2020/12/01 00:14:32;;;;;;;106.47;39.43;;;-1.90;99.90;;;;;;5053338;28;20697;-89
2020/12/01 00:16:58;;;;;;;105.93;39.23;;;-1.90;99.90;;;;;;5037183;28;20510;-90
2020/12/01 00:19:24;;;;;;;100.90;39.10;;;-2.00;99.90;;;;;;5053327;28;20233;-91
2020/12/01 00:21:49;;;;;;;112.67;40.70;;;-2.00;99.90;;;;;;5053855;28;20197;-90
2020/12/01 00:24:15;;;;;;;105.30;39.63;;;-2.00;99.90;;;;;;5054953;28;20175;-90
2020/12/01 00:26:42;;;;;;;98.33;35.60;;;-1.50;99.90;;;;;;5053382;28;20187;-90
2020/12/01 00:29:08;;;;;;;95.30;36.93;;;-2.10;99.90;;;;;;5054953;28;20172;-89
2020/12/01 00:31:41;;;;;;;91.40;35.67;;;-1.90;99.90;;;;;;5054483;28;20194;-90
2020/12/01 00:34:15;;;;;;;92.60;36.90;;;-2.00;99.90;;;;;;5052540;28;20215;-89
2020/12/01 00:36:41;;;;;;;97.80;37.20;;;-1.10;99.90;;;;;;5053024;28;20506;-90
2020/12/01 00:39:08;;;;;;;98.23;35.40;;;-2.20;99.90;;;;;;5053295;28;20187;-89
2020/12/01 00:41:34;;;;;;;96.27;37.53;;;-1.70;99.90;;;;;;5054526;28;20176;-89
2020/12/01 00:44:00;;;;;;;106.40;40.90;;;-2.20;99.90;;;;;;5053117;28;20196;-90
2020/12/01 00:46:27;;;;;;;105.57;39.60;;;-1.00;99.90;;;;;;5052797;28;20188;-89
2020/12/01 00:48:52;;;;;;;105.17;39.57;;;-2.20;99.90;;;;;;5054078;28;20208;-89
2020/12/01 00:51:18;;;;;;;91.83;35.87;;;-2.00;99.90;;;;;;5054079;28;20179;-89
2020/12/01 00:53:44;;;;;;;104.47;39.30;;;-1.70;99.90;;;;;;5052526;28;20261;-90
2020/12/01 00:56:09;;;;;;;102.70;39.27;;;-2.30;99.90;;;;;;5052933;28;20194;-90
2020/12/01 00:58:35;;;;;;;96.77;39.87;;;-2.30;99.90;;;;;;5052738;28;20572;-89
2020/12/01 01:01:02;;;;;;;115.73;42.17;;;-2.30;99.90;;;;;;5054479;28;20190;-89
2020/12/01 01:03:27;;;;;;;123.97;45.73;;;-2.30;99.90;;;;;;5052926;28;20190;-89
2020/12/01 01:05:53;;;;;;;118.47;44.53;;;;;;;;;;5054177;28;20186;-89
2020/12/01 01:08:19;;;;;;;113.83;43.57;;;-2.30;99.90;;;;;;5054017;28;20191;-89
2020/12/01 01:10:45;;;;;;;119.37;43.43;;;-1.90;99.90;;;;;;5053622;28;20176;-88
2020/12/01 01:13:11;;;;;;;115.23;42.77;;;-2.30;99.90;;;;;;5049693;28;20236;-89
2020/12/01 01:15:37;;;;;;;118.27;41.63;;;-2.30;99.90;;;;;;4999972;28;20161;-90
2020/12/01 01:18:04;;;;;;;112.80;41.20;;;-2.30;99.90;;;;;;5034169;28;20207;-88
2020/12/01 01:20:29;;;;;;;119.30;46.60;;;-1.90;99.90;;;;;;5033281;28;20209;-90
2020/12/01 01:22:56;;;;;;;123.53;43.97;;;-2.30;99.90;;;;;;5015297;28;20212;-89
2020/12/01 01:25:22;;;;;;;135.80;46.03;;;-2.10;99.90;;;;;;5033665;28;20185;-90
2020/12/01 01:27:48;;;;;;;119.63;45.67;;;-2.20;99.90;;;;;;5015962;28;20629;-90
2020/12/01 01:30:17;;;;;;;117.43;45.13;;;-2.20;99.90;;;;;;5033450;28;20177;-89
2020/12/01 01:32:43;;;;;;;137.60;47.53;;;-1.60;99.90;;;;;;5033357;28;20247;-89
2020/12/01 01:35:09;;;;;;;113.43;40.67;;;-2.00;99.90;;;;;;5015915;28;20228;-89
2020/12/01 01:37:35;;;;;;;98.13;37.73;;;-0.60;99.90;;;;;;5015460;28;20302;-89
2020/12/01 01:40:00;;;;;;;96.23;38.37;;;-1.80;99.90;;;;;;5033337;28;20182;-89
2020/12/01 01:42:26;;;;;;;109.47;41.57;;;-2.00;99.90;;;;;;5033209;28;20176;-89
2020/12/01 01:44:52;;;;;;;107.67;42.27;;;-2.00;99.90;;;;;;5033281;28;20180;-88
2020/12/01 01:47:28;;;;;;;111.20;42.77;;;-2.00;99.90;;;;;;5015706;28;20176;-88
2020/12/01 01:50:15;;;;;;;96.10;37.93;;;-2.00;99.90;;;;;;5033424;28;20713;-90
2020/12/01 01:52:44;;;;;;;134.27;46.90;;;-1.90;99.90;;;;;;5032832;28;20186;-87
2020/12/01 01:55:26;;;;;;;157.07;53.30;;;-1.90;99.90;;;;;;5033249;28;20301;-88
2020/12/01 01:57:56;;;;;;;125.40;45.03;;;-1.90;99.90;;;;;;5033357;28;20219;-88
2020/12/01 02:00:40;;;;;;;99.87;39.33;;;-2.00;99.90;;;;;;5033520;28;20166;-88
2020/12/01 02:03:06;;;;;;;119.00;44.03;;;-2.00;99.90;;;;;;5015794;28;20276;-89
2020/12/01 02:05:32;;;;;;;129.63;48.73;;;-1.50;99.90;;;;;;4998586;28;20370;-89
2020/12/01 02:07:57;;;;;;;121.97;44.23;;;-1.80;99.90;;;;;;5015537;28;20692;-89
2020/12/01 02:10:23;;;;;;;108.30;44.20;;;-1.90;99.90;;;;;;4998916;28;20174;-89
2020/12/01 02:12:53;;;;;;;109.90;44.37;;;-1.90;99.90;;;;;;5015201;28;20210;-89
2020/12/01 02:15:19;;;;;;;106.10;40.27;;;-1.90;99.90;;;;;;5035244;28;20338;-89
2020/12/01 02:17:45;;;;;;;99.17;40.33;;;;;;;;;;5034826;28;20192;-89
2020/12/01 02:20:18;;;;;;;100.13;41.73;;;-1.80;99.90;;;;;;5053049;28;20174;-89
2020/12/01 02:22:48;;;;;;;104.33;41.93;;;-1.80;99.90;;;;;;5052946;28;20179;-89
2020/12/01 02:25:16;;;;;;;108.90;42.83;;;-1.70;99.90;;;;;;5052957;28;20182;-89
2020/12/01 02:27:41;;;;;;;100.83;40.63;;;-1.70;99.90;;;;;;5052220;28;20325;-88
2020/12/01 02:30:11;;;;;;;98.00;40.53;;;-1.30;99.90;;;;;;5052364;28;20276;-89
2020/12/01 02:32:37;;;;;;;98.07;41.70;;;-1.60;99.90;;;;;;5035334;28;20185;-89
2020/12/01 02:35:10;;;;;;;99.30;36.67;;;-1.60;99.90;;;;;;5037274;28;20624;-89
2020/12/01 02:37:38;;;;;;;80.07;35.83;;;-1.60;99.90;;;;;;5056571;28;20173;-89
2020/12/01 02:40:09;;;;;;;80.80;32.97;;;-1.60;99.90;;;;;;5056605;28;20177;-90
2020/12/01 02:42:34;;;;;;;78.63;30.33;;;-1.00;99.90;;;;;;5038671;28;20705;-89
2020/12/01 02:45:00;;;;;;;75.57;32.00;;;-0.50;99.90;;;;;;5056415;28;20273;-89
2020/12/01 02:47:27;;;;;;;82.97;34.43;;;-1.60;99.90;;;;;;5056602;28;20184;-89
2020/12/01 02:49:53;;;;;;;82.80;34.87;;;-1.60;99.90;;;;;;5056816;28;20207;-89
2020/12/01 02:52:20;;;;;;;82.03;32.30;;;-1.60;99.90;;;;;;5039063;28;20186;-88
2020/12/01 02:54:47;;;;;;;68.70;29.37;;;-1.50;99.90;;;;;;5055801;28;20236;-88
2020/12/01 02:57:13;;;;;;;69.63;31.13;;;-1.70;99.90;;;;;;5056548;28;20199;-88
2020/12/01 02:59:40;;;;;;;64.90;27.57;;;-0.50;99.90;;;;;;5021957;28;20214;-88
2020/12/01 03:02:06;;;;;;;73.20;32.70;;;;;;;;;;5056113;28;20179;-88
2020/12/01 03:04:31;;;;;;;64.53;29.00;;;-1.80;99.90;;;;;;5055900;28;20642;-89
2020/12/01 03:06:57;;;;;;;62.20;26.03;;;;;;;;;;5056339;28;20183;-89
2020/12/01 03:09:23;;;;;;;60.37;25.07;;;-1.80;99.90;;;;;;5038397;28;20215;-88
2020/12/01 03:11:49;;;;;;;57.20;27.23;;;-1.60;99.90;;;;;;5038196;28;20218;-88
2020/12/01 03:14:16;;;;;;;58.90;28.20;;;-1.10;99.90;;;;;;5044660;28;20595;-89
2020/12/01 03:16:42;;;;;;;57.80;25.37;;;-1.90;99.90;;;;;;5035602;28;20625;-89
2020/12/01 03:19:08;;;;;;;59.47;26.07;;;-1.60;99.90;;;;;;5035973;28;20185;-91
2020/12/01 03:21:34;;;;;;;55.77;25.27;;;-1.90;99.90;;;;;;5017819;28;20185;-89
2020/12/01 03:23:59;;;;;;;55.20;24.63;;;-2.00;99.90;;;;;;5036192;28;20180;-89
2020/12/01 03:26:25;;;;;;;54.80;24.13;;;-1.90;99.90;;;;;;5035566;28;20542;-89
2020/12/01 03:28:51;;;;;;;60.10;23.87;;;-1.00;99.90;;;;;;5017690;28;20671;-89
2020/12/01 03:31:20;;;;;;;56.40;23.40;;;-1.40;99.90;;;;;;5036211;28;20205;-88
2020/12/01 03:33:47;;;;;;;52.23;22.90;;;-2.00;99.90;;;;;;5035149;28;20269;-88
2020/12/01 03:36:12;;;;;;;54.37;23.13;;;-2.00;99.90;;;;;;5035836;28;20188;-88
2020/12/01 03:38:38;;;;;;;60.83;26.13;;;-2.00;99.90;;;;;;5035488;28;20177;-88
2020/12/01 03:41:04;;;;;;;48.30;22.10;;;-1.80;99.90;;;;;;5018202;28;20188;-90
2020/12/01 03:43:30;;;;;;;47.03;22.93;;;-0.60;99.90;;;;;;5017804;28;20259;-89
2020/12/01 03:45:56;;;;;;;53.30;23.27;;;-2.00;99.90;;;;;;5034899;28;20236;-89
2020/12/01 03:48:22;;;;;;;49.43;22.73;;;-1.80;99.90;;;;;;5035500;28;20185;-89
2020/12/01 03:50:48;;;;;;;53.67;22.67;;;-2.10;99.90;;;;;;5035270;28;20676;-87
2020/12/01 03:53:13;;;;;;;54.23;21.23;;;-1.60;99.90;;;;;;4985304;28;20179;-88
2020/12/01 03:55:39;;;;;;;55.67;22.67;;;-2.10;99.90;;;;;;5017541;28;20192;-90
2020/12/01 03:58:04;;;;;;;63.57;26.37;;;-2.10;99.90;;;;;;5017758;28;20183;-88
2020/12/01 04:00:31;;;;;;;69.03;26.53;;;-2.20;99.90;;;;;;5035917;28;20660;-90
2020/12/01 04:02:57;;;;;;;73.03;29.13;;;-2.20;99.90;;;;;;5018045;28;20182;-90
2020/12/01 04:05:25;;;;;;;77.13;29.30;;;-2.20;99.90;;;;;;5035904;28;20184;-88
2020/12/01 04:07:52;;;;;;;66.40;27.57;;;-2.10;99.90;;;;;;5023960;28;20535;-86
2020/12/01 04:10:19;;;;;;;63.50;24.80;;;-1.50;99.90;;;;;;5036945;28;20172;-86
2020/12/01 04:12:45;;;;;;;61.67;25.87;;;-1.30;99.90;;;;;;5039536;28;20234;-86
2020/12/01 04:15:13;;;;;;;60.00;25.73;;;-1.00;99.90;;;;;;5047005;28;20293;-86
2020/12/01 04:17:39;;;;;;;62.80;25.30;;;-2.20;99.90;;;;;;5019785;28;20612;-88
2020/12/01 04:20:05;;;;;;;66.20;26.77;;;-1.20;99.90;;;;;;5017646;28;20188;-89
2020/12/01 04:22:31;;;;;;;51.20;24.73;;;-1.90;99.90;;;;;;5035324;28;20182;-91
2020/12/01 04:24:57;;;;;;;56.03;24.03;;;-1.50;99.90;;;;;;5024933;28;20172;-86
2020/12/01 04:27:23;;;;;;;54.10;24.40;;;-2.30;99.90;;;;;;5024850;28;20212;-86
2020/12/01 04:29:48;;;;;;;53.97;23.10;;;-1.70;99.90;;;;;;5025170;28;20193;-84
2020/12/01 04:32:14;;;;;;;58.33;24.87;;;-2.10;99.90;;;;;;5042069;28;20181;-85
2020/12/01 04:34:40;;;;;;;52.20;24.50;;;-2.00;99.90;;;;;;5020468;28;20245;-87
2020/12/01 04:37:07;;;;;;;58.90;24.73;;;-0.90;99.90;;;;;;5001012;28;20180;-88
2020/12/01 04:39:33;;;;;;;48.83;22.70;;;-1.00;99.90;;;;;;5034755;28;20203;-90
2020/12/01 04:42:00;;;;;;;58.93;23.40;;;-2.30;99.90;;;;;;5034921;28;20182;-90
2020/12/01 04:44:55;;;;;;;53.33;23.93;;;-1.60;99.90;;;;;;5035365;28;20183;-91
2020/12/01 04:47:33;;;;;;;50.47;23.83;;;-2.30;99.90;;;;;;5036095;28;20188;-90
2020/12/01 04:50:11;;;;;;;49.97;22.07;;;-2.20;99.90;;;;;;5017638;28;20215;-90
2020/12/01 04:53:20;;;;;;;91.40;41.00;;;-1.20;99.90;;;;;;5033911;28;20166;-90
2020/12/01 04:56:09;;;;;;;72.83;32.60;;;-2.40;99.90;;;;;;5034186;28;20175;-90
2020/12/01 04:59:09;;;;;;;63.00;29.00;;;-2.40;99.90;;;;;;5033259;28;20182;-90
2020/12/01 05:02:02;;;;;;;61.80;25.73;;;-2.30;99.90;;;;;;5034048;28;20171;-89
2020/12/01 05:04:35;;;;;;;48.37;21.97;;;-2.40;99.90;;;;;;5033522;28;20255;-89
2020/12/01 05:07:49;;;;;;;59.00;24.83;;;-1.80;99.90;;;;;;5016231;28;20204;-89
2020/12/01 05:10:15;;;;;;;64.37;27.20;;;-2.40;99.90;;;;;;4991007;28;20185;-87
2020/12/01 05:12:53;;;;;;;57.17;23.87;;;-2.40;99.90;;;;;;5014005;28;20186;-89
2020/12/01 05:15:32;;;;;;;56.10;22.83;;;-2.00;99.90;;;;;;5014395;28;20208;-89
2020/12/01 05:18:32;;;;;;;56.70;23.87;;;-2.40;99.90;;;;;;5014895;28;20640;-90
2020/12/01 05:21:01;;;;;;;56.77;22.23;;;-2.40;99.90;;;;;;4996198;28;20203;-88
2020/12/01 05:23:33;;;;;;;48.37;21.17;;;-2.60;99.90;;;;;;5021570;28;20187;-88
2020/12/01 05:26:12;;;;;;;45.33;21.70;;;-2.40;99.90;;;;;;5015789;28;20651;-86
2020/12/01 05:28:54;;;;;;;51.07;23.20;;;-2.30;99.90;;;;;;5015475;28;20232;-88
2020/12/01 05:31:26;;;;;;;50.87;21.10;;;-2.40;99.90;;;;;;5032716;28;20684;-91
2020/12/01 05:34:04;;;;;;;49.30;21.27;;;-2.40;99.90;;;;;;5034036;28;20223;-88
2020/12/01 05:36:36;;;;;;;48.73;21.10;;;-2.40;99.90;;;;;;5034293;28;20184;-89
2020/12/01 05:39:16;;;;;;;58.23;20.80;;;-2.30;99.90;;;;;;5033518;28;20172;-87
2020/12/01 05:41:46;;;;;;;49.20;22.27;;;-2.30;99.90;;;;;;5033330;28;20215;-88
2020/12/01 05:44:24;;;;;;;50.00;21.70;;;-2.30;99.90;;;;;;5015718;28;20643;-88
2020/12/01 05:47:01;;;;;;;57.03;21.70;;;-2.30;99.90;;;;;;5015270;28;20188;-89
2020/12/01 05:49:47;;;;;;;48.00;20.50;;;-2.50;99.90;;;;;;5015767;28;20204;-89
2020/12/01 05:52:17;;;;;;;56.20;23.63;;;-2.50;99.90;;;;;;5033019;28;20247;-87
2020/12/01 05:54:48;;;;;;;65.23;24.03;;;-2.60;99.90;;;;;;5033115;28;20287;-88
2020/12/01 05:57:26;;;;;;;65.13;28.03;;;-2.50;99.90;;;;;;5032989;28;20217;-88
2020/12/01 06:00:00;;;;;;;80.60;30.80;;;-2.10;99.90;;;;;;5031044;28;20630;-88
2020/12/01 06:02:37;;;;;;;77.00;29.57;;;-2.40;99.90;;;;;;5033147;28;20620;-88
2020/12/01 06:05:03;;;;;;;83.07;31.40;;;;;;;;;;5032588;28;20191;-87
2020/12/01 06:07:29;;;;;;;66.53;28.57;;;-2.50;99.90;;;;;;5012092;28;20188;-87
2020/12/01 06:10:27;;;;;;;104.40;33.00;;;-2.30;99.90;;;;;;5014062;28;20323;-87
2020/12/01 06:13:05;;;;;;;88.50;31.13;;;-2.60;99.90;;;;;;5030725;28;20187;-88
2020/12/01 06:15:34;;;;;;;87.20;33.43;;;-2.60;99.90;;;;;;5011391;28;20575;-90
2020/12/01 06:18:16;;;;;;;81.53;29.23;;;-2.30;99.90;;;;;;5031148;28;20271;-89
2020/12/01 06:20:44;;;;;;;73.90;29.60;;;-2.40;99.90;;;;;;5030422;28;20202;-88
2020/12/01 06:23:25;;;;;;;80.80;31.43;;;-2.50;99.90;;;;;;5031999;28;20188;-86
2020/12/01 06:26:29;;;;;;;91.47;34.83;;;-2.50;99.90;;;;;;5030366;28;20171;-86
2020/12/01 06:29:25;;;;;;;95.80;34.30;;;-2.40;99.90;;;;;;5031196;28;20210;-88
2020/12/01 06:32:09;;;;;;;86.97;34.83;;;-2.40;99.90;;;;;;5013811;28;20519;-85
2020/12/01 06:35:12;;;;;;;89.57;35.73;;;-2.50;99.90;;;;;;5032343;28;20207;-85
2020/12/01 06:38:05;;;;;;;81.17;32.17;;;-2.60;99.90;;;;;;5032037;28;20234;-86
2020/12/01 06:40:42;;;;;;;81.10;32.63;;;-2.60;99.90;;;;;;5032361;28;20193;-89
2020/12/01 06:43:22;;;;;;;66.57;28.47;;;-2.70;99.90;;;;;;5032523;28;20160;-87
2020/12/01 06:45:53;;;;;;;73.00;31.67;;;-2.40;99.90;;;;;;5031535;28;20188;-88
2020/12/01 06:48:32;;;;;;;68.97;31.03;;;-2.10;99.90;;;;;;5032378;28;20157;-88
2020/12/01 06:51:00;;;;;;;71.77;29.50;;;-2.70;99.90;;;;;;5014180;28;20207;-87
2020/12/01 06:53:32;;;;;;;83.87;31.90;;;-2.50;99.90;;;;;;5015136;28;20181;-86
2020/12/01 06:56:12;;;;;;;98.43;35.63;;;-2.40;99.90;;;;;;5031655;28;20695;-86
2020/12/01 06:58:40;;;;;;;92.53;36.77;;;-2.50;99.90;;;;;;5031823;28;20164;-86
2020/12/01 07:01:15;;;;;;;91.43;35.93;;;-2.40;99.90;;;;;;5031036;28;20189;-87
2020/12/01 07:03:41;;;;;;;75.17;32.10;;;-2.40;99.90;;;;;;5003566;28;20181;-87
2020/12/01 07:06:13;;;;;;;84.20;33.50;;;-2.30;99.90;;;;;;5013901;28;20879;-87
2020/12/01 07:08:38;;;;;;;69.87;32.10;;;-2.40;99.90;;;;;;5029257;28;20172;-88
2020/12/01 07:11:26;;;;;;;79.80;32.20;;;-2.30;99.90;;;;;;4997531;28;20578;-90
2020/12/01 07:14:01;;;;;;;78.23;30.07;;;-2.20;99.90;;;;;;5029531;28;20290;-89
2020/12/01 07:16:29;;;;;;;78.63;30.93;;;-2.20;99.90;;;;;;5052095;28;20195;-90
2020/12/01 07:19:16;;;;;;;96.53;37.87;;;-1.70;99.90;;;;;;5050178;28;20180;-90
2020/12/01 07:22:20;;;;;;;102.97;42.93;;;-2.20;99.90;;;;;;5052540;28;20235;-89
2020/12/01 07:25:09;;;;;;;80.63;35.13;;;2.30;99.90;;;;;;5053205;28;20195;-89
2020/12/01 07:27:59;;;;;;;84.00;34.93;;;-1.70;99.90;;;;;;5054135;28;20183;-89
2020/12/01 07:30:28;;;;;;;84.30;34.87;;;-1.90;99.90;;;;;;5053772;28;20183;-88
2020/12/01 07:32:56;;;;;;;91.37;39.30;;;-1.80;99.90;;;;;;5054869;28;20185;-89
2020/12/01 07:35:39;;;;;;;166.83;51.50;;;-1.80;99.90;;;;;;5055137;28;20242;-89
2020/12/01 07:38:40;;;;;;;152.70;56.30;;;-2.10;99.90;;;;;;5053351;28;20180;-90
2020/12/01 07:41:24;;;;;;;172.00;61.10;;;-1.90;99.90;;;;;;5049163;28;20180;-89
2020/12/01 07:44:00;;;;;;;116.13;46.57;;;-2.00;99.90;;;;;;5051438;28;20213;-90
2020/12/01 07:46:27;;;;;;;116.80;45.27;;;-1.30;99.90;;;;;;5053303;28;20186;-89
2020/12/01 07:49:11;;;;;;;102.27;41.43;;;-1.60;99.90;;;;;;5053209;28;20184;-88
2020/12/01 07:51:38;;;;;;;126.50;48.83;;;-1.90;99.90;;;;;;5046469;28;20185;-89
2020/12/01 07:54:06;;;;;;;106.33;41.77;;;-1.80;99.90;;;;;;5036567;28;20294;-89
2020/12/01 07:56:32;;;;;;;95.67;39.13;;;-1.60;99.90;;;;;;5056412;28;20178;-89
2020/12/01 07:59:01;;;;;;;94.83;35.17;;;-1.60;99.90;;;;;;5056400;28;20218;-88
2020/12/01 08:01:27;;;;;;;76.27;31.67;;;;;;;;;;5054527;28;20207;-87
2020/12/01 08:04:10;;;;;;;62.43;26.47;;;-1.50;99.90;;;;;;5055853;28;20198;-90
2020/12/01 08:06:35;;;;;;;65.27;29.07;;;-1.10;99.90;;;;;;5051462;28;20171;-90
2020/12/01 08:09:15;;;;;;;77.30;31.73;;;-1.20;99.90;;;;;;5053214;28;20180;-91
2020/12/01 08:11:42;;;;;;;63.93;28.53;;;-1.30;99.90;;;;;;5054322;28;20171;-90
2020/12/01 08:14:10;;;;;;;61.67;26.37;;;-1.50;99.90;;;;;;5043255;28;20236;-89
2020/12/01 08:16:36;;;;;;;71.40;32.17;;;-1.40;99.90;;;;;;5031571;28;20270;-89
2020/12/01 08:19:04;;;;;;;89.20;37.37;;;-1.50;99.90;;;;;;5000237;28;20184;-89
2020/12/01 08:21:34;;;;;;;74.03;30.93;;;-1.10;99.90;;;;;;5016627;28;20188;-88
2020/12/01 08:24:03;;;;;;;64.40;27.93;;;-1.50;99.90;;;;;;5016028;28;20239;-89
2020/12/01 08:26:35;;;;;;;59.67;25.50;;;-1.40;99.90;;;;;;5015819;28;20178;-90
2020/12/01 08:29:27;;;;;;;63.50;27.03;;;-1.30;99.90;;;;;;5016114;28;20277;-89
2020/12/01 08:31:57;;;;;;;68.93;27.83;;;-1.10;99.90;;;;;;5015111;28;20263;-89
2020/12/01 08:34:35;;;;;;;53.87;24.00;;;-1.00;99.90;;;;;;5034244;28;20257;-87
2020/12/01 08:37:10;;;;;;;58.87;25.20;;;-1.10;99.90;;;;;;5033318;28;20653;-89
2020/12/01 08:40:01;;;;;;;72.97;29.20;;;-0.80;99.90;;;;;;5033834;28;20217;-91
2020/12/01 08:42:47;;;;;;;61.93;26.20;;;-0.70;99.90;;;;;;5020600;28;20185;-90
2020/12/01 08:45:13;;;;;;;63.17;24.23;;;-0.90;99.90;;;;;;5009874;28;20212;-89
2020/12/01 08:47:40;;;;;;;50.20;21.23;;;-0.70;99.90;;;;;;5035392;28;20570;-89
2020/12/01 08:50:37;;;;;;;58.77;22.83;;;-0.70;99.90;;;;;;5017483;28;20215;-91
2020/12/01 08:53:15;;;;;;;62.23;24.93;;;-0.60;99.90;;;;;;5017643;28;20209;-89
2020/12/01 08:55:41;;;;;;;76.40;29.07;;;-0.40;99.90;;;;;;5017824;28;20208;-89
2020/12/01 08:58:13;;;;;;;78.97;36.03;;;-0.10;99.90;;;;;;5035200;28;20184;-92
2020/12/01 09:00:54;;;;;;;66.17;29.50;;;-0.40;99.90;;;;;;5018202;28;20192;-91
2020/12/01 09:03:20;;;;;;;54.47;23.57;;;;;;;;;;5035393;28;20169;-90
2020/12/01 09:05:49;;;;;;;70.63;24.60;;;-0.30;99.90;;;;;;5017987;28;20184;-90
2020/12/01 09:13:56;;;;;;;74.03;26.50;;;-0.20;99.90;;;;;;5033831;28;20705;-89
2020/12/01 09:19:42;;;;;;;78.33;27.83;;;-0.10;99.90;;;;;;5034405;28;20193;-90
2020/12/01 09:22:20;;;;;;;75.73;24.27;;;-0.10;99.90;;;;;;5033347;28;20196;-90
2020/12/01 09:24:45;;;;;;;65.43;25.30;;;0.00;99.90;;;;;;5016956;28;20545;-90
2020/12/01 09:27:14;;;;;;;70.37;25.73;;;-0.10;99.90;;;;;;5034028;28;20185;-89
2020/12/01 09:29:50;;;;;;;53.87;22.37;;;0.20;99.90;;;;;;5034016;28;20218;-90
2020/12/01 09:32:22;;;;;;;79.10;26.00;;;0.00;99.90;;;;;;5033620;28;20183;-90
2020/12/01 09:34:48;;;;;;;75.87;28.93;;;0.00;99.90;;;;;;5033893;28;20253;-89
2020/12/01 09:37:15;;;;;;;59.33;24.00;;;;;;;;;;5033075;28;20180;-90
2020/12/01 09:39:41;;;;;;;47.07;20.97;;;;;;;;;;5033972;28;20275;-89
2020/12/01 09:44:53;;;;;;;51.43;19.63;;;0.10;99.90;;;;;;5032476;28;20178;-91
2020/12/01 09:50:11;;;;;;;62.50;25.00;;;0.40;99.90;;;;;;4998085;28;20178;-91
2020/12/01 10:35:35;;;;;;;66.33;23.77;;;0.30;99.90;;;;;;5038932;28;20214;-90
2020/12/01 10:38:02;;;;;;;85.50;28.90;;;;;;;;;;5017055;28;20188;-92
2020/12/01 10:40:29;;;;;;;82.27;27.77;;;;;;;;;;5018755;28;20254;-89
2020/12/01 10:42:55;;;;;;;84.77;30.33;;;0.50;99.90;;;;;;5016698;28;20187;-92
2020/12/01 10:45:22;;;;;;;80.67;27.20;;;0.50;99.90;;;;;;5035416;28;20243;-94
2020/12/01 10:47:48;;;;;;;66.70;25.03;;;;;;;;;;5001673;28;20190;-94
2020/12/01 10:50:15;;;;;;;49.57;17.43;;;0.60;99.90;;;;;;5001555;28;20188;-93
2020/12/01 10:52:41;;;;;;;60.60;20.93;;;0.60;99.90;;;;;;5017875;28;20204;-95
2020/12/01 10:55:07;;;;;;;76.37;27.93;;;0.90;99.90;;;;;;5034497;28;20246;-92
2020/12/01 10:57:35;;;;;;;77.17;28.50;;;;;;;;;;5037550;28;20202;-94
2020/12/01 11:00:05;;;;;;;61.37;25.07;;;0.70;99.90;;;;;;5038258;28;20278;-92
2020/12/01 11:02:51;;;;;;;47.07;19.53;;;0.90;99.90;;;;;;5020776;28;20223;-93
2020/12/01 11:05:23;;;;;;;46.23;18.77;;;0.70;99.90;;;;;;5036100;28;20255;-92
2020/12/01 11:07:49;;;;;;;45.67;18.60;;;;;;;;;;5019485;28;20183;-94
2020/12/01 11:10:15;;;;;;;45.63;17.80;;;;;;;;;;5019907;28;20560;-93
2020/12/01 11:12:41;;;;;;;44.33;17.03;;;0.80;99.90;;;;;;5019597;28;20273;-90
2020/12/01 11:15:07;;;;;;;39.67;17.57;;;;;;;;;;5037504;28;20718;-91
2020/12/01 11:17:33;;;;;;;39.60;17.13;;;;;;;;;;5019721;28;20188;-92
2020/12/01 11:19:59;;;;;;;55.70;21.80;;;0.80;99.90;;;;;;5020588;28;20235;-90
2020/12/01 11:22:25;;;;;;;47.87;18.27;;;0.90;99.90;;;;;;5021621;28;20184;-92
2020/12/01 11:24:51;;;;;;;53.90;23.90;;;;;;;;;;5021946;28;20636;-92
2020/12/01 11:27:17;;;;;;;49.27;18.33;;;;;;;;;;5036795;28;20638;-90
2020/12/01 11:29:55;;;;;;;42.07;19.63;;;0.50;99.90;;;;;;5021217;28;20206;-92
2020/12/01 11:32:21;;;;;;;58.33;30.57;;;;;;;;;;5018997;28;20230;-90
2020/12/01 11:34:47;;;;;;;43.30;20.73;;;0.70;99.90;;;;;;5047596;28;20244;-89
2020/12/01 11:37:13;;;;;;;36.23;16.90;;;0.80;99.90;;;;;;5022263;28;20195;-90
2020/12/01 11:39:39;;;;;;;41.77;18.17;;;;;;;;;;5059048;28;20171;-89
2020/12/01 11:42:05;;;;;;;39.33;17.33;;;;;;;;;;5023263;28;20180;-88
2020/12/01 11:44:31;;;;;;;44.70;17.20;;;;;;;;;;5036736;28;20192;-92
2020/12/01 11:46:57;;;;;;;40.90;18.10;;;0.60;99.90;;;;;;5021859;28;20273;-90
2020/12/01 11:49:23;;;;;;;38.90;15.37;;;0.80;99.90;;;;;;5036603;28;20225;-89
2020/12/01 11:51:49;;;;;;;33.00;14.93;;;0.80;99.90;;;;;;5041265;28;20271;-91
2020/12/01 11:54:16;;;;;;;40.03;17.07;;;0.80;99.90;;;;;;5047448;28;20216;-88
2020/12/01 11:56:42;;;;;;;48.40;19.60;;;;;;;;;;5026268;28;20234;-90
2020/12/01 11:59:08;;;;;;;64.33;24.57;;;;;;;;;;5025405;28;20246;-88
2020/12/01 12:01:35;;;;;;;41.67;17.27;;;0.80;99.90;;;;;;5020531;28;20184;-89
2020/12/01 12:04:01;;;;;;;36.40;16.87;;;;;;;;;;5016781;28;20186;-90
2020/12/01 12:06:28;;;;;;;41.17;18.13;;;;;;;;;;5017541;28;20186;-90
2020/12/01 12:08:54;;;;;;;36.80;15.53;;;;;;;;;;5017546;28;20201;-91
2020/12/01 12:11:20;;;;;;;47.20;17.30;;;;;;;;;;5017777;28;20186;-91
2020/12/01 12:13:46;;;;;;;33.90;15.03;;;;;;;;;;5030238;28;20313;-90
2020/12/01 12:16:17;;;;;;;32.80;15.17;;;0.80;99.90;;;;;;5054409;28;20286;-92
2020/12/01 12:18:44;;;;;;;35.17;15.83;;;1.10;99.90;;;;;;5053080;28;20590;-92
2020/12/01 12:21:11;;;;;;;34.53;16.63;;;0.80;99.90;;;;;;5052348;28;20174;-92
2020/12/01 12:23:37;;;;;;;44.17;18.83;;;;;;;;;;5053044;28;20191;-90
2020/12/01 12:26:03;;;;;;;32.80;15.80;;;0.80;99.90;;;;;;5052456;28;20186;-88
2020/12/01 12:28:28;;;;;;;33.97;14.93;;;0.70;99.90;;;;;;5052490;28;20209;-90
2020/12/01 12:30:54;;;;;;;49.73;21.93;;;1.30;99.90;;;;;;5052800;28;20187;-91
2020/12/01 12:33:21;;;;;;;51.63;20.30;;;0.80;99.90;;;;;;5052828;28;20721;-90
2020/12/01 12:35:51;;;;;;;49.37;21.17;;;0.80;99.90;;;;;;5050363;28;20206;-91
2020/12/01 12:38:18;;;;;;;46.47;21.90;;;0.80;99.90;;;;;;5053365;28;20274;-92
2020/12/01 12:40:47;;;;;;;52.70;22.27;;;;;;;;;;5052437;28;20593;-90
2020/12/01 12:43:13;;;;;;;50.17;23.70;;;;;;;;;;5051930;28;20178;-88
2020/12/01 12:45:39;;;;;;;72.27;32.57;;;;;;;;;;5053724;28;20183;-89
2020/12/01 12:48:05;;;;;;;53.63;23.13;;;1.20;99.90;;;;;;5036182;28;20584;-89
2020/12/01 12:50:31;;;;;;;106.63;32.37;;;;;;;;;;5053881;28;20184;-93
2020/12/01 12:52:57;;;;;;;57.97;24.13;;;;;;;;;;5054084;28;20211;-88
2020/12/01 12:55:23;;;;;;;49.20;20.70;;;;;;;;;;5054223;28;20663;-92
2020/12/01 12:57:48;;;;;;;62.53;26.00;;;0.80;99.90;;;;;;5053790;28;20185;-88
2020/12/01 13:00:14;;;;;;;55.57;22.53;;;0.70;99.90;;;;;;5019810;28;20700;-88
2020/12/01 13:02:40;;;;;;;81.20;34.50;;;0.90;99.90;;;;;;5037993;28;20633;-89
2020/12/01 13:05:06;;;;;;;68.73;28.97;;;;;;;;;;5039508;28;20186;-90
2020/12/01 13:07:31;;;;;;;61.50;27.00;;;1.60;99.90;;;;;;5042579;28;20184;-91
2020/12/01 13:09:58;;;;;;;81.97;31.43;;;;;;;;;;5060110;28;20230;-93
2020/12/01 13:12:24;;;;;;;114.60;42.13;;;;;;;;;;5037350;28;20595;-92
2020/12/01 13:14:50;;;;;;;54.07;22.40;;;;;;;;;;5053343;28;20227;-89
2020/12/01 13:17:16;;;;;;;75.20;23.27;;;;;;;;;;5052831;28;20189;-89
2020/12/01 13:19:42;;;;;;;88.10;31.27;;;;;;;;;;5036190;28;20180;-91
2020/12/01 13:22:08;;;;;;;81.60;30.20;;;;;;;;;;5054553;28;20177;-87
2020/12/01 13:24:33;;;;;;;112.50;37.87;;;0.80;99.90;;;;;;5053694;28;20221;-88
2020/12/01 13:26:59;;;;;;;112.07;37.37;;;;;;;;;;5019696;28;20210;-89
2020/12/01 13:29:25;;;;;;;214.30;66.17;;;;;;;;;;5053086;28;20179;-90
2020/12/01 13:31:52;;;;;;;111.83;36.53;;;;;;;;;;5052851;28;20191;-89
2020/12/01 13:34:17;;;;;;;68.80;24.00;;;1.10;99.90;;;;;;5052325;28;20669;-89
2020/12/01 13:36:43;;;;;;;59.10;22.57;;;;;;;;;;5051680;28;20189;-90
2020/12/01 13:39:10;;;;;;;66.03;24.23;;;0.90;99.90;;;;;;5053581;28;20185;-86
2020/12/01 13:41:36;;;;;;;131.80;49.77;;;;;;;;;;5054337;28;20184;-90
2020/12/01 13:44:03;;;;;;;78.07;32.43;;;;;;;;;;5053681;28;20267;-87
2020/12/01 13:46:29;;;;;;;79.00;33.97;;;;;;;;;;5055479;28;20182;-90
2020/12/01 13:48:55;;;;;;;118.10;51.47;;;;;;;;;;5053106;28;20184;-91
2020/12/01 13:51:21;;;;;;;138.93;63.57;;;;;;;;;;5054499;28;20233;-91
2020/12/01 13:53:47;;;;;;;119.80;49.30;;;;;;;;;;5036907;28;20305;-89
2020/12/01 13:56:13;;;;;;;75.73;26.77;;;0.90;99.90;;;;;;5052975;28;20214;-89
2020/12/01 13:58:38;;;;;;;70.43;24.83;;;1.00;99.90;;;;;;5051808;28;20184;-89